Time;durP1;ratioP1;P1;durP2;ratioP2;P2;SDS_P1;SDS_P2;PMS_P1;PMS_P2;Temp;Humidity;BMP_temperature;BMP_pressure;BME280_temperature;BME280_humidity;BME280_pressure;Samples;Min_cycle;Max_cycle;Signal;HPM_P1;HPM_P2
2023/03/29 00:01:50;;;;;;;5.85;2.90;;;;;;;;;;4942105;28;20104;-71
2023/03/29 00:04:18;;;;;;;2.72;2.30;;;;;;;;;;4940823;29;20210;-68
2023/03/29 00:06:46;;;;;;;3.20;2.35;;;;;;;;;;4941933;28;20079;-69
2023/03/29 00:09:13;;;;;;;4.13;2.72;;;;;;;;;;4941343;29;20047;-68
2023/03/29 00:11:38;;;;;;;2.63;2.40;;;;;;;;;;4941152;28;20061;-69
2023/03/29 00:14:04;;;;;;;3.15;2.53;;;;;;;;;;4941105;28;20047;-71
2023/03/29 00:16:30;;;;;;;3.08;2.42;;;;;;;;;;4941511;29;20043;-68
2023/03/29 00:18:56;;;;;;;3.25;2.50;;;;;;;;;;4941625;28;20517;-69
2023/03/29 00:21:21;;;;;;;3.30;2.55;;;;;;;;;;4941070;29;20051;-69
2023/03/29 00:23:46;;;;;;;4.38;2.83;;;;;;;;;;4942086;29;20047;-68
2023/03/29 00:26:12;;;;;;;3.60;2.33;;;;;;;;;;4943007;28;20043;-68
2023/03/29 00:28:37;;;;;;;3.65;2.60;;;;;;;;;;4929024;29;20090;-68
2023/03/29 00:31:09;;;;;;;2.55;1.98;;;;;;;;;;4945678;28;20051;-69
2023/03/29 00:33:34;;;;;;;4.07;2.30;;;;;;;;;;4944922;29;20047;-69
2023/03/29 00:36:00;;;;;;;2.67;2.20;;;;;;;;;;4945712;29;20050;-69
2023/03/29 00:38:26;;;;;;;2.80;2.33;;;;;;;;;;4927668;28;20478;-69
2023/03/29 00:40:51;;;;;;;2.75;1.88;;;;;;;;;;4928331;29;20039;-69
2023/03/29 00:43:17;;;;;;;3.13;1.80;;;;;;;;;;4944625;28;20065;-69
2023/03/29 00:45:42;;;;;;;3.60;1.40;;;;;;;;;;4927220;29;20157;-69
2023/03/29 00:48:11;;;;;;;3.20;1.38;;;;;;;;;;4945034;28;20039;-71
2023/03/29 00:50:51;;;;;;;0.80;0.80;;;;;;;;;;4944547;29;20134;-69
2023/03/29 00:53:33;;;;;;;1.77;0.98;;;;;;;;;;4945618;29;20134;-70
2023/03/29 00:56:12;;;;;;;0.77;0.70;;;;;;;;;;4944282;28;20058;-71
2023/03/29 00:59:03;;;;;;;3.28;0.80;;;;;;;;;;4896662;29;20073;-69
2023/03/29 01:02:05;;;;;;;0.77;0.77;;;;;;;;;;4944605;28;20065;-71
2023/03/29 01:04:44;;;;;;;0.75;0.70;;;;;;;;;;4927008;29;20051;-70
2023/03/29 01:07:20;;;;;;;0.82;0.80;;;;;;;;;;4925533;28;20043;-70
2023/03/29 01:10:02;;;;;;;0.80;0.80;;;;;;;;;;4936308;28;20045;-70
2023/03/29 01:12:34;;;;;;;0.80;0.80;;;;;;;;;;4942152;28;20051;-69
2023/03/29 01:15:22;;;;;;;0.80;0.80;;;;;;;;;;4926106;29;20059;-69
2023/03/29 01:17:52;;;;;;;1.48;0.80;;;;;;;;;;4933901;29;21051;-69
2023/03/29 01:20:30;;;;;;;1.20;0.98;;;;;;;;;;4944091;28;20043;-69
2023/03/29 01:23:21;;;;;;;0.88;0.88;;;;;;;;;;4939366;28;20105;-69
2023/03/29 01:26:27;;;;;;;0.90;0.90;;;;;;;;;;4927246;28;20696;-70
2023/03/29 01:28:59;;;;;;;1.48;1.00;;;;;;;;;;4912939;29;20367;-70
2023/03/29 01:31:28;;;;;;;1.25;0.80;;;;;;;;;;4927253;29;20094;-70
2023/03/29 01:34:00;;;;;;;3.85;1.00;;;;;;;;;;4944653;29;20055;-70
2023/03/29 01:36:33;;;;;;;0.70;0.70;;;;;;;;;;4926205;28;20050;-71
2023/03/29 01:39:05;;;;;;;1.08;0.98;;;;;;;;;;4944082;29;20054;-70
2023/03/29 01:41:39;;;;;;;0.97;0.87;;;;;;;;;;4944006;29;20062;-70
2023/03/29 01:44:11;;;;;;;1.52;1.00;;;;;;;;;;4926842;28;20057;-71
2023/03/29 01:46:49;;;;;;;1.20;1.10;;;;;;;;;;4927305;29;20519;-70
2023/03/29 01:49:41;;;;;;;3.63;1.00;;;;;;;;;;4944527;28;20057;-70
2023/03/29 01:52:15;;;;;;;;;;;;;;;;;;4943399;28;21074;-70
2023/03/29 01:54:50;;;;;;;1.23;1.00;;;;;;;;;;4926560;29;19922;-70
2023/03/29 01:57:20;;;;;;;1.95;1.20;;;;;;;;;;4927169;29;20074;-70
2023/03/29 01:59:47;;;;;;;1.20;1.10;;;;;;;;;;4910975;29;20110;-70
2023/03/29 02:02:15;;;;;;;1.25;1.15;;;;;;;;;;4925821;28;20055;-70
2023/03/29 02:04:48;;;;;;;1.25;0.98;;;;;;;;;;4943665;29;20051;-70
2023/03/29 02:07:16;;;;;;;0.90;0.90;;;;;;;;;;4927172;28;20055;-70
2023/03/29 02:09:42;;;;;;;1.33;1.13;;;;;;;;;;4926731;29;20514;-70
2023/03/29 02:12:09;;;;;;;1.00;1.00;;;;;;;;;;4942479;28;20057;-70
2023/03/29 02:14:35;;;;;;;0.85;0.85;;;;;;;;;;4926405;29;20059;-69
2023/03/29 02:17:21;;;;;;;1.33;1.10;;;;;;;;;;4943701;29;20054;-68
2023/03/29 02:19:51;;;;;;;1.77;1.30;;;;;;;;;;4926574;28;20050;-68
2023/03/29 02:22:35;;;;;;;2.97;1.30;;;;;;;;;;4925753;29;20055;-70
2023/03/29 02:25:03;;;;;;;2.10;1.20;;;;;;;;;;4943010;28;20125;-69
2023/03/29 02:27:29;;;;;;;2.13;1.15;;;;;;;;;;4926037;29;20051;-70
2023/03/29 02:29:56;;;;;;;1.90;1.27;;;;;;;;;;4926579;29;20035;-70
2023/03/29 02:32:39;;;;;;;4.20;1.23;;;;;;;;;;4925869;28;20074;-70
2023/03/29 02:35:17;;;;;;;1.42;1.20;;;;;;;;;;4940957;28;20245;-70
2023/03/29 02:37:46;;;;;;;1.40;1.20;;;;;;;;;;4925945;28;20050;-70
2023/03/29 02:40:14;;;;;;;3.42;1.15;;;;;;;;;;4941364;29;20050;-69
2023/03/29 02:42:43;;;;;;;1.33;1.23;;;;;;;;;;4926450;28;20506;-69
2023/03/29 02:45:13;;;;;;;2.92;1.38;;;;;;;;;;4925174;29;20053;-69
2023/03/29 02:47:46;;;;;;;1.67;1.13;;;;;;;;;;4925609;29;20506;-69
2023/03/29 02:50:11;;;;;;;1.20;1.10;;;;;;;;;;4942038;28;20055;-69
2023/03/29 02:52:42;;;;;;;1.23;1.10;;;;;;;;;;4943093;29;20058;-69
2023/03/29 02:55:13;;;;;;;1.27;1.17;;;;;;;;;;4925644;29;20047;-69
2023/03/29 02:57:39;;;;;;;1.33;1.13;;;;;;;;;;4925211;29;20047;-69
2023/03/29 03:00:08;;;;;;;1.85;1.02;;;;;;;;;;4942489;28;20128;-71
2023/03/29 03:02:34;;;;;;;1.23;1.13;;;;;;;;;;4942712;29;20136;-69
2023/03/29 03:05:00;;;;;;;1.20;1.02;;;;;;;;;;4925780;29;20371;-69
2023/03/29 03:07:27;;;;;;;1.30;1.20;;;;;;;;;;4925191;28;20047;-69
2023/03/29 03:09:53;;;;;;;2.55;1.27;;;;;;;;;;4941380;29;20085;-69
2023/03/29 03:12:19;;;;;;;1.23;1.20;;;;;;;;;;4942475;29;20483;-69
2023/03/29 03:14:45;;;;;;;1.08;1.08;;;;;;;;;;4941971;28;20142;-69
2023/03/29 03:17:10;;;;;;;1.48;1.15;;;;;;;;;;4925610;29;20518;-69
2023/03/29 03:19:36;;;;;;;2.08;1.25;;;;;;;;;;4924621;29;20051;-69
2023/03/29 03:22:04;;;;;;;3.10;1.27;;;;;;;;;;4924824;28;20074;-69
2023/03/29 03:24:31;;;;;;;1.98;1.40;;;;;;;;;;4924246;29;20047;-68
2023/03/29 03:26:57;;;;;;;4.45;1.20;;;;;;;;;;4925488;28;20047;-69
2023/03/29 03:29:27;;;;;;;2.30;1.08;;;;;;;;;;4924816;29;20049;-69
2023/03/29 03:32:12;;;;;;;1.83;1.20;;;;;;;;;;4940243;28;20683;-69
2023/03/29 03:34:57;;;;;;;2.63;1.25;;;;;;;;;;4942120;29;20637;-68
2023/03/29 03:37:24;;;;;;;1.63;1.30;;;;;;;;;;4925578;29;20077;-68
2023/03/29 03:39:50;;;;;;;2.63;1.25;;;;;;;;;;4925116;28;20525;-68
2023/03/29 03:42:18;;;;;;;1.63;1.38;;;;;;;;;;4923597;29;20051;-69
2023/03/29 03:44:45;;;;;;;4.10;1.50;;;;;;;;;;4940806;28;20051;-69
2023/03/29 03:47:36;;;;;;;3.05;2.00;;;;;;;;;;4915044;29;20699;-68
2023/03/29 03:50:16;;;;;;;3.10;1.40;;;;;;;;;;4910815;28;20126;-68
2023/03/29 03:52:42;;;;;;;1.88;1.77;;;;;;;;;;4924725;29;20047;-69
2023/03/29 03:55:08;;;;;;;3.58;1.65;;;;;;;;;;4925115;29;20043;-69
2023/03/29 03:57:50;;;;;;;1.80;1.70;;;;;;;;;;4925994;28;20093;-69
2023/03/29 04:00:18;;;;;;;1.70;1.60;;;;;;;;;;4923882;29;20359;-69
2023/03/29 04:02:47;;;;;;;1.92;1.70;;;;;;;;;;4923526;28;20047;-69
2023/03/29 04:05:14;;;;;;;2.20;1.65;;;;;;;;;;4942005;29;20054;-70
2023/03/29 04:07:40;;;;;;;1.70;1.60;;;;;;;;;;4941484;29;20098;-70
2023/03/29 04:10:33;;;;;;;3.00;1.20;;;;;;;;;;4912964;29;20098;-70
2023/03/29 04:13:06;;;;;;;1.88;1.60;;;;;;;;;;4924770;29;20046;-69
2023/03/29 04:15:38;;;;;;;3.72;1.58;;;;;;;;;;4924223;29;20067;-69
2023/03/29 04:18:08;;;;;;;2.30;1.50;;;;;;;;;;4923740;29;20054;-72
2023/03/29 04:20:39;;;;;;;1.70;1.60;;;;;;;;;;4940071;28;20054;-70
2023/03/29 04:23:05;;;;;;;1.70;1.60;;;;;;;;;;4928736;28;20051;-70
2023/03/29 04:25:31;;;;;;;1.88;1.48;;;;;;;;;;4922317;29;20047;-69
2023/03/29 04:27:56;;;;;;;3.35;1.58;;;;;;;;;;4923727;29;20502;-69
2023/03/29 04:30:38;;;;;;;1.58;1.48;;;;;;;;;;4921320;29;20122;-69
2023/03/29 04:33:07;;;;;;;4.45;2.00;;;;;;;;;;4941646;28;20450;-69
2023/03/29 04:35:35;;;;;;;1.80;1.70;;;;;;;;;;4924087;29;20118;-68
2023/03/29 04:38:03;;;;;;;2.13;1.80;;;;;;;;;;4925660;29;20162;-69
2023/03/29 04:40:29;;;;;;;2.05;1.85;;;;;;;;;;4924204;28;20663;-69
2023/03/29 04:43:05;;;;;;;3.15;2.03;;;;;;;;;;4924848;29;20486;-69
2023/03/29 04:45:31;;;;;;;2.00;1.75;;;;;;;;;;4923772;29;20043;-69
2023/03/29 04:48:13;;;;;;;1.40;1.30;;;;;;;;;;4922805;28;20051;-70
2023/03/29 04:50:45;;;;;;;3.97;1.95;;;;;;;;;;4923879;29;20133;-69
2023/03/29 04:53:11;;;;;;;2.65;1.98;;;;;;;;;;4924622;29;20047;-70
2023/03/29 04:55:37;;;;;;;2.13;1.85;;;;;;;;;;4923976;29;20058;-70
2023/03/29 04:58:04;;;;;;;2.72;1.83;;;;;;;;;;4940648;29;20039;-68
2023/03/29 05:00:32;;;;;;;2.20;2.00;;;;;;;;;;4922857;29;20058;-71
2023/03/29 05:03:21;;;;;;;3.30;1.80;;;;;;;;;;4924044;29;20053;-70
2023/03/29 05:06:10;;;;;;;3.85;1.98;;;;;;;;;;4923712;28;20043;-70
2023/03/29 05:08:38;;;;;;;1.80;1.70;;;;;;;;;;4923640;29;20055;-70
2023/03/29 05:11:24;;;;;;;1.70;1.60;;;;;;;;;;4940906;28;20035;-71
2023/03/29 05:13:50;;;;;;;1.77;1.67;;;;;;;;;;4944074;28;20055;-69
2023/03/29 05:16:17;;;;;;;1.67;1.58;;;;;;;;;;4943260;29;20446;-69
2023/03/29 05:18:43;;;;;;;4.93;1.48;;;;;;;;;;4925562;29;20039;-68
2023/03/29 05:21:09;;;;;;;1.60;1.50;;;;;;;;;;4925276;29;20039;-67
2023/03/29 05:23:36;;;;;;;2.70;1.80;;;;;;;;;;4926029;29;20057;-69
2023/03/29 05:26:21;;;;;;;1.98;1.55;;;;;;;;;;4942334;29;20073;-68
2023/03/29 05:28:50;;;;;;;3.40;2.03;;;;;;;;;;4926187;29;20047;-68
2023/03/29 05:31:16;;;;;;;3.75;1.60;;;;;;;;;;4925944;29;20051;-69
2023/03/29 05:33:42;;;;;;;3.42;2.10;;;;;;;;;;4926560;29;20059;-66
2023/03/29 05:36:12;;;;;;;2.90;2.20;;;;;;;;;;4927457;29;20047;-67
2023/03/29 05:38:45;;;;;;;4.30;2.83;;;;;;;;;;4908581;29;20082;-68
2023/03/29 05:41:12;;;;;;;3.22;2.60;;;;;;;;;;4926457;29;20042;-68
2023/03/29 05:43:43;;;;;;;3.35;2.42;;;;;;;;;;4944383;28;20426;-67
2023/03/29 05:46:09;;;;;;;2.67;2.35;;;;;;;;;;4926556;29;20783;-68
2023/03/29 05:48:40;;;;;;;2.70;2.40;;;;;;;;;;4927078;28;20074;-67
2023/03/29 05:51:07;;;;;;;2.55;2.28;;;;;;;;;;4927760;29;20684;-69
2023/03/29 05:53:34;;;;;;;3.00;2.47;;;;;;;;;;4926897;29;20047;-70
2023/03/29 05:55:59;;;;;;;3.13;2.17;;;;;;;;;;4926346;29;20123;-69
2023/03/29 05:58:27;;;;;;;2.75;2.47;;;;;;;;;;4923835;28;20058;-70
2023/03/29 06:00:53;;;;;;;2.63;2.40;;;;;;;;;;4924909;29;20042;-69
2023/03/29 06:03:39;;;;;;;4.30;2.60;;;;;;;;;;4927885;29;20075;-69
2023/03/29 06:06:05;;;;;;;2.60;2.40;;;;;;;;;;4925037;28;20146;-69
2023/03/29 06:08:33;;;;;;;5.70;2.70;;;;;;;;;;4924765;29;20058;-69
2023/03/29 06:11:15;;;;;;;3.17;2.67;;;;;;;;;;4924769;29;20047;-69
2023/03/29 06:13:59;;;;;;;3.78;3.20;;;;;;;;;;4942881;29;20058;-69
2023/03/29 06:16:25;;;;;;;3.17;2.88;;;;;;;;;;4925350;28;20043;-69
2023/03/29 06:18:50;;;;;;;2.92;2.50;;;;;;;;;;4926230;29;20043;-68
2023/03/29 06:21:16;;;;;;;6.85;2.67;;;;;;;;;;4926821;29;20545;-70
2023/03/29 06:23:42;;;;;;;3.45;2.40;;;;;;;;;;4917965;28;20047;-70
2023/03/29 06:26:09;;;;;;;2.75;2.10;;;;;;;;;;4924147;29;20568;-70
2023/03/29 06:28:35;;;;;;;8.65;2.33;;;;;;;;;;4926140;28;20166;-71
2023/03/29 06:31:03;;;;;;;5.22;2.38;;;;;;;;;;4925652;29;20142;-70
2023/03/29 06:33:33;;;;;;;3.10;2.30;;;;;;;;;;4926099;29;20046;-70
2023/03/29 06:36:09;;;;;;;5.55;2.28;;;;;;;;;;4926507;29;20086;-68
2023/03/29 06:38:35;;;;;;;6.22;2.30;;;;;;;;;;4941658;29;20467;-70
2023/03/29 06:41:22;;;;;;;4.15;2.20;;;;;;;;;;4927354;28;20058;-69
2023/03/29 06:44:00;;;;;;;3.03;2.10;;;;;;;;;;4926656;29;20476;-68
2023/03/29 06:46:31;;;;;;;2.33;2.10;;;;;;;;;;4925439;28;20542;-70
2023/03/29 06:49:00;;;;;;;3.50;2.22;;;;;;;;;;4942126;29;20133;-70
2023/03/29 06:51:33;;;;;;;3.65;2.40;;;;;;;;;;4925981;29;20129;-69
2023/03/29 06:53:59;;;;;;;2.20;1.95;;;;;;;;;;4925703;28;20043;-70
2023/03/29 06:56:26;;;;;;;2.40;2.20;;;;;;;;;;4925718;29;20133;-70
2023/03/29 06:58:58;;;;;;;2.17;1.90;;;;;;;;;;4941229;28;20069;-67
2023/03/29 07:01:29;;;;;;;3.55;2.10;;;;;;;;;;4925685;29;20058;-69
2023/03/29 07:04:06;;;;;;;2.65;1.92;;;;;;;;;;4925680;29;20133;-69
2023/03/29 07:06:39;;;;;;;4.18;2.00;;;;;;;;;;4908439;29;20178;-69
2023/03/29 07:09:05;;;;;;;2.58;2.15;;;;;;;;;;4926076;29;20046;-71
2023/03/29 07:11:50;;;;;;;2.90;1.90;;;;;;;;;;4942526;28;20054;-70
2023/03/29 07:14:20;;;;;;;2.38;2.10;;;;;;;;;;4924932;29;20040;-67
2023/03/29 07:16:47;;;;;;;4.30;2.25;;;;;;;;;;4925367;28;20066;-68
2023/03/29 07:19:21;;;;;;;3.88;2.42;;;;;;;;;;4925499;29;20683;-68
2023/03/29 07:21:50;;;;;;;7.15;2.50;;;;;;;;;;4941115;29;20053;-68
2023/03/29 07:24:18;;;;;;;2.30;2.00;;;;;;;;;;4924761;29;20050;-70
2023/03/29 07:26:45;;;;;;;6.25;2.83;;;;;;;;;;4924865;28;20078;-68
2023/03/29 07:29:12;;;;;;;2.20;2.00;;;;;;;;;;4925144;29;20074;-68
2023/03/29 07:31:40;;;;;;;1.98;1.60;;;;;;;;;;4924292;29;20043;-68
2023/03/29 07:34:45;;;;;;;3.28;1.10;;;;;;;;;;4907971;29;20655;-69
2023/03/29 07:37:23;;;;;;;1.15;0.70;;;;;;;;;;4942333;29;20051;-67
2023/03/29 07:39:50;;;;;;;1.42;0.90;;;;;;;;;;4924685;28;20039;-68
2023/03/29 07:42:37;;;;;;;2.13;0.80;;;;;;;;;;4940944;28;20062;-67
2023/03/29 07:45:07;;;;;;;0.80;0.80;;;;;;;;;;4924655;28;20086;-68
2023/03/29 07:47:39;;;;;;;1.10;0.95;;;;;;;;;;4924127;29;20043;-68
2023/03/29 07:50:06;;;;;;;1.48;0.60;;;;;;;;;;4924783;29;20058;-69
2023/03/29 07:52:33;;;;;;;1.80;0.90;;;;;;;;;;4924071;29;20445;-67
2023/03/29 07:54:59;;;;;;;5.43;0.90;;;;;;;;;;4924173;29;20055;-68
2023/03/29 07:57:48;;;;;;;1.45;0.63;;;;;;;;;;4941180;28;20517;-68
2023/03/29 08:00:15;;;;;;;1.75;0.85;;;;;;;;;;4924706;29;20418;-68
2023/03/29 08:02:48;;;;;;;1.55;0.80;;;;;;;;;;4924451;29;20043;-69
2023/03/29 08:05:14;;;;;;;0.82;0.75;;;;;;;;;;4941149;29;20130;-67
2023/03/29 08:07:49;;;;;;;2.67;0.75;;;;;;;;;;4924903;29;20043;-69
2023/03/29 08:10:19;;;;;;;2.17;1.20;;;;;;;;;;4941635;28;20054;-67
2023/03/29 08:12:56;;;;;;;1.02;0.60;;;;;;;;;;4940971;29;20039;-69
2023/03/29 08:15:45;;;;;;;2.25;0.75;;;;;;;;;;4941251;28;20118;-68
2023/03/29 08:18:19;;;;;;;1.67;0.80;;;;;;;;;;4924075;29;20130;-69
2023/03/29 08:20:45;;;;;;;3.33;0.75;;;;;;;;;;4924420;29;20182;-71
2023/03/29 08:23:10;;;;;;;4.68;0.93;;;;;;;;;;4924672;29;20133;-69
2023/03/29 08:25:52;;;;;;;;;;;;;;;;;;4924777;29;20048;-67
2023/03/29 08:28:18;;;;;;;1.40;0.68;;;;;;;;;;4923034;29;20313;-69
2023/03/29 08:30:49;;;;;;;1.35;0.93;;;;;;;;;;4923961;29;20070;-69
2023/03/29 08:33:14;;;;;;;1.52;0.70;;;;;;;;;;4941684;28;20562;-70
2023/03/29 08:35:40;;;;;;;0.85;0.80;;;;;;;;;;4924430;29;20039;-71
2023/03/29 08:38:18;;;;;;;2.65;0.80;;;;;;;;;;4923272;28;20047;-70
2023/03/29 08:40:47;;;;;;;3.65;0.98;;;;;;;;;;4939669;29;20506;-69
2023/03/29 08:43:24;;;;;;;0.97;0.63;;;;;;;;;;4924667;29;20447;-69
2023/03/29 08:46:13;;;;;;;1.08;0.73;;;;;;;;;;4923551;28;20050;-68
2023/03/29 08:48:52;;;;;;;0.63;0.45;;;;;;;;;;4943439;28;20077;-67
2023/03/29 08:52:00;;;;;;;1.75;0.80;;;;;;;;;;4927738;28;20078;-70
2023/03/29 08:54:33;;;;;;;1.65;0.80;;;;;;;;;;4834604;29;20049;-69
2023/03/29 08:57:32;;;;;;;2.78;1.08;;;;;;;;;;4834716;29;20072;-68
2023/03/29 09:00:15;;;;;;;1.70;0.65;;;;;;;;;;4903852;29;20039;-69
2023/03/29 09:02:43;;;;;;;0.60;0.60;;;;;;;;;;4926959;29;20098;-67
2023/03/29 09:05:36;;;;;;;2.17;0.77;;;;;;;;;;4927867;29;20065;-68
2023/03/29 09:08:15;;;;;;;7.15;0.93;;;;;;;;;;4926934;29;20047;-68
2023/03/29 09:11:13;;;;;;;1.08;0.65;;;;;;;;;;4943443;29;20043;-68
2023/03/29 09:14:02;;;;;;;0.90;0.70;;;;;;;;;;4927252;28;20106;-68
2023/03/29 09:16:53;;;;;;;0.85;0.60;;;;;;;;;;4941285;29;20109;-67
2023/03/29 09:19:47;;;;;;;5.60;0.93;;;;;;;;;;4939393;28;20047;-68
2023/03/29 09:22:30;;;;;;;1.20;0.90;;;;;;;;;;4942434;28;20050;-69
2023/03/29 09:25:12;;;;;;;1.05;0.80;;;;;;;;;;4926982;29;20050;-67
2023/03/29 09:28:03;;;;;;;0.63;0.63;;;;;;;;;;4927538;29;20398;-67
2023/03/29 09:30:40;;;;;;;1.30;0.68;;;;;;;;;;4941836;29;20061;-69
2023/03/29 09:33:12;;;;;;;2.60;0.65;;;;;;;;;;4910940;29;20058;-71
2023/03/29 09:36:27;;;;;;;3.72;0.90;;;;;;;;;;4944487;28;20054;-69
2023/03/29 09:38:54;;;;;;;0.90;0.80;;;;;;;;;;4920784;29;20126;-68
2023/03/29 09:41:25;;;;;;;;;;;;;;;;;;4927417;28;20422;-69
2023/03/29 09:43:54;;;;;;;1.90;0.60;;;;;;;;;;4925729;29;20781;-67
2023/03/29 09:46:40;;;;;;;1.95;1.00;;;;;;;;;;4940916;28;20518;-68
2023/03/29 09:49:13;;;;;;;1.58;0.80;;;;;;;;;;4926650;29;20042;-68
2023/03/29 09:51:41;;;;;;;3.67;0.85;;;;;;;;;;4926140;29;20548;-69
2023/03/29 09:54:09;;;;;;;1.42;0.80;;;;;;;;;;4927326;29;20145;-68
2023/03/29 09:57:04;;;;;;;3.28;0.80;;;;;;;;;;4906132;29;20039;-67
2023/03/29 09:59:30;;;;;;;2.50;0.95;;;;;;;;;;4925529;29;20059;-69
2023/03/29 10:02:07;;;;;;;0.68;0.68;;;;;;;;;;4926589;29;20154;-69
2023/03/29 10:04:33;;;;;;;1.27;0.85;;;;;;;;;;4926095;29;20054;-70
2023/03/29 10:06:59;;;;;;;1.40;0.95;;;;;;;;;;4941398;29;20039;-68
2023/03/29 10:09:28;;;;;;;1.33;0.90;;;;;;;;;;4926231;28;20109;-69
2023/03/29 10:12:05;;;;;;;2.83;1.10;;;;;;;;;;4926380;29;20098;-70
2023/03/29 10:14:41;;;;;;;1.17;0.63;;;;;;;;;;4942678;29;20066;-69
2023/03/29 10:17:18;;;;;;;0.80;0.80;;;;;;;;;;4940491;29;20054;-69
2023/03/29 10:20:02;;;;;;;1.83;1.20;;;;;;;;;;4943151;28;20086;-70
2023/03/29 10:22:36;;;;;;;1.40;0.88;;;;;;;;;;4941310;29;20566;-69
2023/03/29 10:25:03;;;;;;;0.77;0.52;;;;;;;;;;4943718;28;20127;-69
2023/03/29 10:27:33;;;;;;;1.73;0.82;;;;;;;;;;4925632;28;20043;-70
2023/03/29 10:30:07;;;;;;;4.32;0.93;;;;;;;;;;4942747;29;20047;-69
2023/03/29 10:32:33;;;;;;;2.10;0.95;;;;;;;;;;4942363;28;20122;-69
2023/03/29 10:35:18;;;;;;;0.90;0.90;;;;;;;;;;4941771;29;20071;-70
2023/03/29 10:37:48;;;;;;;2.50;0.50;;;;;;;;;;4941493;28;20051;-69
2023/03/29 10:40:26;;;;;;;2.30;0.60;;;;;;;;;;4941362;29;20053;-69
2023/03/29 10:42:56;;;;;;;0.85;0.77;;;;;;;;;;4942782;29;20134;-70
2023/03/29 10:45:28;;;;;;;3.47;0.88;;;;;;;;;;4942359;29;20458;-70
2023/03/29 10:47:55;;;;;;;;;;;;;;;;;;4942419;28;20518;-70
2023/03/29 10:50:21;;;;;;;1.02;0.60;;;;;;;;;;4938724;28;19933;-68
2023/03/29 10:52:49;;;;;;;4.85;0.95;;;;;;;;;;4939816;28;20096;-69
2023/03/29 10:55:14;;;;;;;2.72;0.80;;;;;;;;;;4941793;29;20222;-68
2023/03/29 10:58:22;;;;;;;3.67;1.10;;;;;;;;;;4941337;29;20129;-68
2023/03/29 11:00:55;;;;;;;1.50;0.80;;;;;;;;;;4833187;29;20045;-68
2023/03/29 11:03:39;;;;;;;1.13;0.77;;;;;;;;;;4869459;29;20053;-69
2023/03/29 11:06:18;;;;;;;2.28;0.90;;;;;;;;;;4913885;29;20552;-69
2023/03/29 11:08:52;;;;;;;2.58;1.10;;;;;;;;;;4897253;29;20523;-68
2023/03/29 11:11:37;;;;;;;1.33;0.70;;;;;;;;;;4940392;28;20267;-69
2023/03/29 11:14:21;;;;;;;8.38;1.02;;;;;;;;;;4941691;29;20042;-69
2023/03/29 11:17:08;;;;;;;5.18;0.85;;;;;;;;;;4926480;29;20047;-70
2023/03/29 11:20:14;;;;;;;2.15;0.60;;;;;;;;;;4939206;29;20090;-69
2023/03/29 11:22:54;;;;;;;0.95;0.70;;;;;;;;;;4841199;29;20144;-70
2023/03/29 11:25:39;;;;;;;0.77;0.65;;;;;;;;;;4847999;29;20600;-69
2023/03/29 11:28:10;;;;;;;2.08;0.70;;;;;;;;;;4913201;29;20047;-71
2023/03/29 11:30:47;;;;;;;0.60;0.60;;;;;;;;;;4940810;28;20495;-71
2023/03/29 11:33:41;;;;;;;1.35;0.70;;;;;;;;;;4940673;29;20909;-70
2023/03/29 11:36:24;;;;;;;6.32;0.95;;;;;;;;;;4940901;29;20101;-69
2023/03/29 11:39:14;;;;;;;3.42;0.80;;;;;;;;;;4913471;29;20506;-69
2023/03/29 11:41:43;;;;;;;2.58;0.80;;;;;;;;;;4938979;29;20043;-68
2023/03/29 11:44:30;;;;;;;1.38;0.98;;;;;;;;;;4938515;28;20559;-69
2023/03/29 11:47:11;;;;;;;1.40;0.80;;;;;;;;;;4924613;29;20086;-70
2023/03/29 11:49:42;;;;;;;1.60;0.77;;;;;;;;;;4941762;28;20525;-70
2023/03/29 11:52:23;;;;;;;3.13;0.70;;;;;;;;;;4942019;29;20050;-69
2023/03/29 11:54:48;;;;;;;1.70;0.80;;;;;;;;;;4920735;29;20054;-71
2023/03/29 11:57:33;;;;;;;3.72;0.90;;;;;;;;;;4940828;28;20039;-69
2023/03/29 12:00:14;;;;;;;1.60;0.57;;;;;;;;;;4941579;28;20057;-70
2023/03/29 12:02:48;;;;;;;1.58;0.90;;;;;;;;;;4940775;29;20066;-71
2023/03/29 12:05:21;;;;;;;1.58;0.70;;;;;;;;;;4941460;28;20154;-70
2023/03/29 12:07:54;;;;;;;3.33;0.90;;;;;;;;;;4938027;28;20043;-71
2023/03/29 12:10:23;;;;;;;2.00;0.63;;;;;;;;;;4937179;29;20054;-70
2023/03/29 12:12:58;;;;;;;1.48;0.60;;;;;;;;;;4936998;29;20090;-70
2023/03/29 12:15:29;;;;;;;0.88;0.65;;;;;;;;;;4937674;29;20133;-69
2023/03/29 12:17:57;;;;;;;0.80;0.73;;;;;;;;;;4936897;29;20130;-71
2023/03/29 12:20:27;;;;;;;5.00;1.10;;;;;;;;;;4936893;28;20138;-70
2023/03/29 12:22:55;;;;;;;0.60;0.60;;;;;;;;;;4924617;29;20151;-70
2023/03/29 12:25:28;;;;;;;1.20;0.70;;;;;;;;;;4944070;28;20055;-71
2023/03/29 12:28:18;;;;;;;2.40;0.60;;;;;;;;;;4943879;29;21154;-69
2023/03/29 12:31:07;;;;;;;0.70;0.70;;;;;;;;;;4916833;28;20054;-70
2023/03/29 12:33:38;;;;;;;0.55;0.55;;;;;;;;;;4937580;29;20050;-71
2023/03/29 12:36:40;;;;;;;3.92;0.80;;;;;;;;;;4943392;28;20105;-70
2023/03/29 12:39:32;;;;;;;3.10;0.82;;;;;;;;;;4946432;28;20069;-71
2023/03/29 12:42:21;;;;;;;3.13;0.80;;;;;;;;;;4944661;29;20120;-70
2023/03/29 12:45:15;;;;;;;1.42;1.00;;;;;;;;;;4942881;29;20051;-72
2023/03/29 12:47:44;;;;;;;3.03;0.70;;;;;;;;;;4943124;29;20051;-70
2023/03/29 12:50:27;;;;;;;1.15;0.65;;;;;;;;;;4944517;28;20070;-71
2023/03/29 12:53:03;;;;;;;1.73;0.80;;;;;;;;;;4943982;28;20047;-70
2023/03/29 12:55:52;;;;;;;2.00;0.65;;;;;;;;;;4944516;28;20620;-70
2023/03/29 12:58:40;;;;;;;2.33;0.80;;;;;;;;;;4946394;29;20058;-70
2023/03/29 13:01:05;;;;;;;2.15;0.90;;;;;;;;;;4945923;28;20046;-70
2023/03/29 13:03:45;;;;;;;1.20;0.65;;;;;;;;;;4945075;29;20051;-69
2023/03/29 13:06:12;;;;;;;0.65;0.55;;;;;;;;;;4946142;28;20475;-70
2023/03/29 13:08:43;;;;;;;3.53;0.80;;;;;;;;;;4946781;28;20852;-71
2023/03/29 13:11:38;;;;;;;0.98;0.60;;;;;;;;;;4941687;28;20046;-70
2023/03/29 13:18:02;;;;;;;0.45;0.45;;;;;;;;;;4947996;28;20727;-70
2023/03/29 13:20:45;;;;;;;2.50;0.73;;;;;;;;;;4944636;28;20126;-70
2023/03/29 13:23:28;;;;;;;1.45;1.02;;;;;;;;;;4940826;28;20035;-71
2023/03/29 13:26:16;;;;;;;2.58;1.02;;;;;;;;;;4946346;28;20153;-69
2023/03/29 13:29:03;;;;;;;2.05;0.73;;;;;;;;;;4944105;28;20055;-70
2023/03/29 13:31:55;;;;;;;0.75;0.73;;;;;;;;;;4946418;28;20105;-71
2023/03/29 13:34:35;;;;;;;2.40;0.68;;;;;;;;;;4942126;28;20055;-71
2023/03/29 13:37:22;;;;;;;3.38;0.80;;;;;;;;;;4943944;29;20039;-70
2023/03/29 13:39:51;;;;;;;8.52;1.17;;;;;;;;;;4934492;28;20054;-71
2023/03/29 13:42:22;;;;;;;4.22;1.02;;;;;;;;;;4943147;29;20058;-71
2023/03/29 13:44:48;;;;;;;2.17;1.10;;;;;;;;;;4942774;28;20125;-70
2023/03/29 13:47:35;;;;;;;5.10;0.98;;;;;;;;;;4943423;28;20453;-70
2023/03/29 13:50:15;;;;;;;1.00;0.77;;;;;;;;;;4943937;29;20043;-70
2023/03/29 13:52:48;;;;;;;1.90;1.00;;;;;;;;;;4937351;29;20051;-71
2023/03/29 13:55:20;;;;;;;1.67;0.80;;;;;;;;;;4942935;29;20050;-71
2023/03/29 13:57:55;;;;;;;3.22;1.02;;;;;;;;;;4942353;28;20065;-70
2023/03/29 14:00:27;;;;;;;5.30;1.17;;;;;;;;;;4942879;29;20069;-71
2023/03/29 14:02:54;;;;;;;4.85;0.80;;;;;;;;;;4943210;28;20066;-70
2023/03/29 14:05:24;;;;;;;5.13;1.20;;;;;;;;;;4938111;28;20146;-71
2023/03/29 14:07:53;;;;;;;1.98;0.65;;;;;;;;;;4941417;29;20122;-71
2023/03/29 14:10:26;;;;;;;1.38;0.95;;;;;;;;;;4923810;28;20503;-70
2023/03/29 14:13:29;;;;;;;3.40;1.27;;;;;;;;;;4947151;29;20054;-69
2023/03/29 14:16:05;;;;;;;1.25;0.90;;;;;;;;;;4941181;29;20134;-70
2023/03/29 14:18:38;;;;;;;3.30;0.73;;;;;;;;;;4921347;29;31262;-70
2023/03/29 14:21:04;;;;;;;1.95;0.88;;;;;;;;;;4940900;29;20054;-71
2023/03/29 14:23:32;;;;;;;5.22;0.85;;;;;;;;;;4941119;29;20043;-71
2023/03/29 14:26:13;;;;;;;4.07;0.77;;;;;;;;;;4939118;29;20051;-70
2023/03/29 14:28:45;;;;;;;1.95;0.70;;;;;;;;;;4940364;28;20051;-71
2023/03/29 14:31:21;;;;;;;5.93;1.05;;;;;;;;;;4939785;29;20067;-71
2023/03/29 14:33:52;;;;;;;3.15;0.90;;;;;;;;;;4941587;29;20074;-71
2023/03/29 14:36:17;;;;;;;1.85;0.60;;;;;;;;;;4940223;28;20039;-73
2023/03/29 14:38:49;;;;;;;0.80;0.60;;;;;;;;;;4925629;29;20043;-71
2023/03/29 14:41:16;;;;;;;1.38;0.90;;;;;;;;;;4941101;29;20047;-72
2023/03/29 14:43:43;;;;;;;3.85;0.80;;;;;;;;;;4941270;28;20055;-70
2023/03/29 14:46:10;;;;;;;2.05;0.80;;;;;;;;;;4940668;29;20051;-71
2023/03/29 14:48:36;;;;;;;2.28;1.00;;;;;;;;;;4940788;28;20526;-71
2023/03/29 14:51:02;;;;;;;1.60;0.75;;;;;;;;;;4923794;29;20142;-71
2023/03/29 14:53:31;;;;;;;0.50;0.50;;;;;;;;;;4940577;29;20047;-72
2023/03/29 14:55:57;;;;;;;8.85;1.20;;;;;;;;;;4940787;29;20097;-71
2023/03/29 14:58:33;;;;;;;1.63;0.60;;;;;;;;;;4941436;28;20062;-73
2023/03/29 15:01:12;;;;;;;1.25;0.50;;;;;;;;;;4941884;29;20142;-72
2023/03/29 15:04:05;;;;;;;3.58;0.73;;;;;;;;;;4941119;29;20081;-73
2023/03/29 15:06:30;;;;;;;;;;;;;;;;;;4936606;29;20139;-72
2023/03/29 15:08:59;;;;;;;2.40;1.00;;;;;;;;;;4940297;29;20678;-73
2023/03/29 15:11:26;;;;;;;1.52;0.60;;;;;;;;;;4940358;28;20486;-71
2023/03/29 15:14:07;;;;;;;1.98;0.80;;;;;;;;;;4922225;29;20105;-71
2023/03/29 15:16:36;;;;;;;1.38;0.90;;;;;;;;;;4922872;28;20134;-72
2023/03/29 15:19:01;;;;;;;5.28;0.63;;;;;;;;;;4940271;29;20101;-71
2023/03/29 15:21:32;;;;;;;10.05;1.02;;;;;;;;;;4941957;29;20149;-66
2023/03/29 15:24:00;;;;;;;4.70;0.90;;;;;;;;;;4924644;28;20047;-71
2023/03/29 15:26:30;;;;;;;2.78;0.52;;;;;;;;;;4941198;28;20051;-70
2023/03/29 15:29:22;;;;;;;3.95;1.40;;;;;;;;;;4942600;28;20565;-72
2023/03/29 15:31:57;;;;;;;3.78;1.00;;;;;;;;;;4942010;29;20047;-71